sensor_id;sensor_type;location;lat;lon;timestamp;P1;durP1;ratioP1;P2;durP2;ratioP2
25962;SDS011;13760;52.588;13.406;2023-07-30T00:02:16;13.30;;;7.72;;
25962;SDS011;13760;52.588;13.406;2023-07-30T00:04:42;10.23;;;7.72;;
25962;SDS011;13760;52.588;13.406;2023-07-30T00:07:08;11.57;;;7.60;;
25962;SDS011;13760;52.588;13.406;2023-07-30T00:09:34;8.50;;;7.53;;
25962;SDS011;13760;52.588;13.406;2023-07-30T00:11:59;8.55;;;6.97;;
25962;SDS011;13760;52.588;13.406;2023-07-30T00:14:26;7.93;;;6.85;;
25962;SDS011;13760;52.588;13.406;2023-07-30T00:16:52;11.38;;;7.40;;
25962;SDS011;13760;52.588;13.406;2023-07-30T00:19:18;7.95;;;7.15;;
25962;SDS011;13760;52.588;13.406;2023-07-30T00:21:43;9.85;;;6.60;;
25962;SDS011;13760;52.588;13.406;2023-07-30T00:24:11;8.30;;;6.90;;
25962;SDS011;13760;52.588;13.406;2023-07-30T00:26:37;10.43;;;6.68;;
25962;SDS011;13760;52.588;13.406;2023-07-30T00:29:03;9.60;;;7.18;;
25962;SDS011;13760;52.588;13.406;2023-07-30T00:31:28;7.28;;;6.57;;
25962;SDS011;13760;52.588;13.406;2023-07-30T00:33:54;9.93;;;7.05;;
25962;SDS011;13760;52.588;13.406;2023-07-30T00:36:20;10.35;;;7.03;;
25962;SDS011;13760;52.588;13.406;2023-07-30T00:38:45;9.80;;;6.75;;
25962;SDS011;13760;52.588;13.406;2023-07-30T00:41:10;9.85;;;6.82;;
25962;SDS011;13760;52.588;13.406;2023-07-30T00:43:36;7.18;;;6.47;;
25962;SDS011;13760;52.588;13.406;2023-07-30T00:46:02;6.93;;;6.28;;
25962;SDS011;13760;52.588;13.406;2023-07-30T00:48:28;8.18;;;6.45;;
25962;SDS011;13760;52.588;13.406;2023-07-30T00:50:54;6.93;;;5.95;;
25962;SDS011;13760;52.588;13.406;2023-07-30T00:53:20;7.43;;;6.22;;
25962;SDS011;13760;52.588;13.406;2023-07-30T00:55:48;6.88;;;5.68;;
25962;SDS011;13760;52.588;13.406;2023-07-30T00:58:14;7.10;;;5.82;;
25962;SDS011;13760;52.588;13.406;2023-07-30T01:00:40;9.45;;;6.10;;
25962;SDS011;13760;52.588;13.406;2023-07-30T01:03:06;7.72;;;5.95;;
25962;SDS011;13760;52.588;13.406;2023-07-30T01:05:32;6.43;;;5.80;;
25962;SDS011;13760;52.588;13.406;2023-07-30T01:07:58;6.35;;;5.75;;
25962;SDS011;13760;52.588;13.406;2023-07-30T01:10:24;7.03;;;6.03;;
25962;SDS011;13760;52.588;13.406;2023-07-30T01:12:51;7.88;;;5.88;;
25962;SDS011;13760;52.588;13.406;2023-07-30T01:15:17;6.20;;;5.65;;
25962;SDS011;13760;52.588;13.406;2023-07-30T01:17:43;8.70;;;5.43;;
25962;SDS011;13760;52.588;13.406;2023-07-30T01:20:10;8.88;;;5.80;;
25962;SDS011;13760;52.588;13.406;2023-07-30T01:22:36;7.13;;;5.93;;
25962;SDS011;13760;52.588;13.406;2023-07-30T01:25:01;12.07;;;6.22;;
25962;SDS011;13760;52.588;13.406;2023-07-30T01:27:31;6.82;;;6.13;;
25962;SDS011;13760;52.588;13.406;2023-07-30T01:32:42;9.23;;;6.03;;
25962;SDS011;13760;52.588;13.406;2023-07-30T01:35:10;7.25;;;5.50;;
25962;SDS011;13760;52.588;13.406;2023-07-30T01:37:38;6.18;;;5.65;;
25962;SDS011;13760;52.588;13.406;2023-07-30T01:40:04;6.30;;;5.50;;
25962;SDS011;13760;52.588;13.406;2023-07-30T01:42:31;7.15;;;5.30;;
25962;SDS011;13760;52.588;13.406;2023-07-30T01:44:57;6.25;;;5.55;;
25962;SDS011;13760;52.588;13.406;2023-07-30T01:47:22;6.28;;;5.70;;
25962;SDS011;13760;52.588;13.406;2023-07-30T01:49:48;8.45;;;5.50;;
25962;SDS011;13760;52.588;13.406;2023-07-30T01:52:13;6.18;;;5.57;;
25962;SDS011;13760;52.588;13.406;2023-07-30T01:54:39;5.90;;;5.40;;
25962;SDS011;13760;52.588;13.406;2023-07-30T01:57:04;6.72;;;5.85;;
25962;SDS011;13760;52.588;13.406;2023-07-30T01:59:30;6.18;;;5.57;;
25962;SDS011;13760;52.588;13.406;2023-07-30T02:01:55;7.10;;;5.45;;
25962;SDS011;13760;52.588;13.406;2023-07-30T02:04:21;12.52;;;5.65;;
25962;SDS011;13760;52.588;13.406;2023-07-30T02:06:46;6.78;;;5.72;;
25962;SDS011;13760;52.588;13.406;2023-07-30T02:09:12;6.20;;;5.60;;
25962;SDS011;13760;52.588;13.406;2023-07-30T02:11:37;9.45;;;5.95;;
25962;SDS011;13760;52.588;13.406;2023-07-30T02:14:03;6.40;;;5.43;;
25962;SDS011;13760;52.588;13.406;2023-07-30T02:16:28;7.38;;;5.78;;
25962;SDS011;13760;52.588;13.406;2023-07-30T02:18:54;7.55;;;5.63;;
25962;SDS011;13760;52.588;13.406;2023-07-30T02:21:19;6.18;;;5.57;;
25962;SDS011;13760;52.588;13.406;2023-07-30T02:23:45;5.80;;;5.10;;
25962;SDS011;13760;52.588;13.406;2023-07-30T02:26:10;5.70;;;5.13;;
25962;SDS011;13760;52.588;13.406;2023-07-30T02:28:36;8.40;;;5.55;;
25962;SDS011;13760;52.588;13.406;2023-07-30T02:31:01;6.40;;;5.72;;
25962;SDS011;13760;52.588;13.406;2023-07-30T02:33:27;6.68;;;5.43;;
25962;SDS011;13760;52.588;13.406;2023-07-30T02:35:52;8.45;;;5.72;;
25962;SDS011;13760;52.588;13.406;2023-07-30T02:38:18;6.25;;;5.15;;
25962;SDS011;13760;52.588;13.406;2023-07-30T02:40:43;8.48;;;5.68;;
25962;SDS011;13760;52.588;13.406;2023-07-30T02:43:09;6.40;;;5.63;;
25962;SDS011;13760;52.588;13.406;2023-07-30T02:45:34;6.18;;;5.57;;
25962;SDS011;13760;52.588;13.406;2023-07-30T02:48:00;8.55;;;4.95;;
25962;SDS011;13760;52.588;13.406;2023-07-30T02:50:25;9.70;;;5.75;;
25962;SDS011;13760;52.588;13.406;2023-07-30T02:52:51;6.97;;;5.22;;
25962;SDS011;13760;52.588;13.406;2023-07-30T02:55:16;7.47;;;5.93;;
25962;SDS011;13760;52.588;13.406;2023-07-30T02:57:41;6.45;;;5.78;;
25962;SDS011;13760;52.588;13.406;2023-07-30T03:00:07;7.18;;;5.88;;
25962;SDS011;13760;52.588;13.406;2023-07-30T03:02:34;7.68;;;5.60;;
25962;SDS011;13760;52.588;13.406;2023-07-30T03:04:59;6.40;;;5.80;;
25962;SDS011;13760;52.588;13.406;2023-07-30T03:07:25;6.68;;;5.97;;
25962;SDS011;13760;52.588;13.406;2023-07-30T03:09:50;5.88;;;5.35;;
25962;SDS011;13760;52.588;13.406;2023-07-30T03:12:16;9.73;;;6.05;;
25962;SDS011;13760;52.588;13.406;2023-07-30T03:14:41;10.35;;;5.43;;
25962;SDS011;13760;52.588;13.406;2023-07-30T03:17:07;6.20;;;5.13;;
25962;SDS011;13760;52.588;13.406;2023-07-30T03:19:32;5.80;;;5.20;;
25962;SDS011;13760;52.588;13.406;2023-07-30T03:21:58;6.32;;;5.72;;
25962;SDS011;13760;52.588;13.406;2023-07-30T03:24:23;6.68;;;6.00;;
25962;SDS011;13760;52.588;13.406;2023-07-30T03:26:49;6.55;;;5.53;;
25962;SDS011;13760;52.588;13.406;2023-07-30T03:29:14;12.60;;;5.55;;
25962;SDS011;13760;52.588;13.406;2023-07-30T03:31:41;9.18;;;6.13;;
25962;SDS011;13760;52.588;13.406;2023-07-30T03:34:06;7.40;;;6.15;;
25962;SDS011;13760;52.588;13.406;2023-07-30T03:36:32;9.80;;;5.82;;
25962;SDS011;13760;52.588;13.406;2023-07-30T03:38:58;7.00;;;5.30;;
25962;SDS011;13760;52.588;13.406;2023-07-30T03:41:23;8.90;;;5.60;;
25962;SDS011;13760;52.588;13.406;2023-07-30T03:43:49;10.55;;;5.95;;
25962;SDS011;13760;52.588;13.406;2023-07-30T03:46:15;6.10;;;5.53;;
25962;SDS011;13760;52.588;13.406;2023-07-30T03:48:40;7.63;;;5.65;;
25962;SDS011;13760;52.588;13.406;2023-07-30T03:51:06;8.80;;;6.05;;
25962;SDS011;13760;52.588;13.406;2023-07-30T03:53:32;8.77;;;6.30;;
25962;SDS011;13760;52.588;13.406;2023-07-30T03:55:58;6.82;;;6.10;;
25962;SDS011;13760;52.588;13.406;2023-07-30T03:58:23;9.85;;;6.70;;
25962;SDS011;13760;52.588;13.406;2023-07-30T04:00:49;9.48;;;5.75;;
25962;SDS011;13760;52.588;13.406;2023-07-30T04:03:14;7.45;;;5.57;;
25962;SDS011;13760;52.588;13.406;2023-07-30T04:05:40;6.05;;;5.47;;
25962;SDS011;13760;52.588;13.406;2023-07-30T04:08:05;9.10;;;6.18;;
25962;SDS011;13760;52.588;13.406;2023-07-30T04:10:31;7.13;;;6.40;;
25962;SDS011;13760;52.588;13.406;2023-07-30T04:12:56;8.50;;;6.35;;
25962;SDS011;13760;52.588;13.406;2023-07-30T04:15:22;7.00;;;5.97;;
25962;SDS011;13760;52.588;13.406;2023-07-30T04:17:47;7.00;;;5.97;;
25962;SDS011;13760;52.588;13.406;2023-07-30T04:20:12;8.77;;;7.00;;
25962;SDS011;13760;52.588;13.406;2023-07-30T04:22:38;7.60;;;6.82;;
25962;SDS011;13760;52.588;13.406;2023-07-30T04:25:06;9.32;;;7.25;;
25962;SDS011;13760;52.588;13.406;2023-07-30T04:27:32;7.65;;;6.95;;
25962;SDS011;13760;52.588;13.406;2023-07-30T04:29:58;8.98;;;6.88;;
25962;SDS011;13760;52.588;13.406;2023-07-30T04:32:23;7.47;;;6.78;;
25962;SDS011;13760;52.588;13.406;2023-07-30T04:34:49;8.27;;;6.78;;
25962;SDS011;13760;52.588;13.406;2023-07-30T04:37:14;8.73;;;7.15;;
25962;SDS011;13760;52.588;13.406;2023-07-30T04:39:40;7.85;;;6.80;;
25962;SDS011;13760;52.588;13.406;2023-07-30T04:42:05;7.43;;;6.60;;
25962;SDS011;13760;52.588;13.406;2023-07-30T04:44:31;7.65;;;7.05;;
25962;SDS011;13760;52.588;13.406;2023-07-30T04:46:56;9.20;;;7.90;;
25962;SDS011;13760;52.588;13.406;2023-07-30T04:49:22;9.63;;;7.28;;
25962;SDS011;13760;52.588;13.406;2023-07-30T04:51:47;9.95;;;7.22;;
25962;SDS011;13760;52.588;13.406;2023-07-30T04:54:12;9.57;;;7.28;;
25962;SDS011;13760;52.588;13.406;2023-07-30T04:56:38;7.32;;;6.72;;
25962;SDS011;13760;52.588;13.406;2023-07-30T04:59:03;7.80;;;7.00;;
25962;SDS011;13760;52.588;13.406;2023-07-30T05:01:29;8.00;;;7.30;;
25962;SDS011;13760;52.588;13.406;2023-07-30T05:03:56;8.43;;;7.63;;
25962;SDS011;13760;52.588;13.406;2023-07-30T05:06:21;7.30;;;6.70;;
25962;SDS011;13760;52.588;13.406;2023-07-30T05:08:47;8.38;;;7.57;;
25962;SDS011;13760;52.588;13.406;2023-07-30T05:11:13;8.45;;;7.40;;
25962;SDS011;13760;52.588;13.406;2023-07-30T05:13:38;8.57;;;7.50;;
25962;SDS011;13760;52.588;13.406;2023-07-30T05:16:04;8.30;;;7.25;;
25962;SDS011;13760;52.588;13.406;2023-07-30T05:18:29;7.78;;;7.07;;
25962;SDS011;13760;52.588;13.406;2023-07-30T05:20:55;9.05;;;7.53;;
25962;SDS011;13760;52.588;13.406;2023-07-30T05:23:20;9.43;;;7.63;;
25962;SDS011;13760;52.588;13.406;2023-07-30T05:25:47;7.55;;;6.85;;
25962;SDS011;13760;52.588;13.406;2023-07-30T05:28:12;7.10;;;6.50;;
25962;SDS011;13760;52.588;13.406;2023-07-30T05:30:38;6.82;;;6.22;;
25962;SDS011;13760;52.588;13.406;2023-07-30T05:33:03;8.55;;;6.53;;
25962;SDS011;13760;52.588;13.406;2023-07-30T05:35:29;7.07;;;5.72;;
25962;SDS011;13760;52.588;13.406;2023-07-30T05:37:55;7.28;;;5.07;;
25962;SDS011;13760;52.588;13.406;2023-07-30T05:40:20;5.35;;;4.88;;
25962;SDS011;13760;52.588;13.406;2023-07-30T05:42:46;5.63;;;5.07;;
25962;SDS011;13760;52.588;13.406;2023-07-30T05:45:12;7.50;;;4.70;;
25962;SDS011;13760;52.588;13.406;2023-07-30T05:47:37;7.35;;;4.47;;
25962;SDS011;13760;52.588;13.406;2023-07-30T05:50:03;5.13;;;4.47;;
25962;SDS011;13760;52.588;13.406;2023-07-30T05:52:29;5.82;;;4.32;;
25962;SDS011;13760;52.588;13.406;2023-07-30T05:54:55;5.80;;;4.32;;
25962;SDS011;13760;52.588;13.406;2023-07-30T05:57:20;7.78;;;4.57;;
25962;SDS011;13760;52.588;13.406;2023-07-30T05:59:46;5.30;;;4.40;;
25962;SDS011;13760;52.588;13.406;2023-07-30T06:02:11;5.40;;;4.35;;
25962;SDS011;13760;52.588;13.406;2023-07-30T06:04:37;4.60;;;4.20;;
25962;SDS011;13760;52.588;13.406;2023-07-30T06:07:03;4.50;;;4.10;;
25962;SDS011;13760;52.588;13.406;2023-07-30T06:09:29;4.68;;;4.25;;
25962;SDS011;13760;52.588;13.406;2023-07-30T06:11:57;6.30;;;4.13;;
25962;SDS011;13760;52.588;13.406;2023-07-30T06:14:24;5.70;;;4.22;;
25962;SDS011;13760;52.588;13.406;2023-07-30T06:16:50;5.07;;;4.10;;
25962;SDS011;13760;52.588;13.406;2023-07-30T06:19:16;5.88;;;4.00;;
25962;SDS011;13760;52.588;13.406;2023-07-30T06:21:42;4.53;;;3.78;;
25962;SDS011;13760;52.588;13.406;2023-07-30T06:24:07;4.40;;;4.00;;
25962;SDS011;13760;52.588;13.406;2023-07-30T06:26:33;5.32;;;3.90;;
25962;SDS011;13760;52.588;13.406;2023-07-30T06:28:58;6.95;;;3.83;;
25962;SDS011;13760;52.588;13.406;2023-07-30T06:31:24;4.72;;;3.80;;
25962;SDS011;13760;52.588;13.406;2023-07-30T06:33:50;4.85;;;3.80;;
25962;SDS011;13760;52.588;13.406;2023-07-30T06:36:15;6.93;;;3.42;;
25962;SDS011;13760;52.588;13.406;2023-07-30T06:38:41;3.90;;;3.15;;
25962;SDS011;13760;52.588;13.406;2023-07-30T06:41:06;5.55;;;3.10;;
25962;SDS011;13760;52.588;13.406;2023-07-30T06:43:32;4.00;;;3.50;;
25962;SDS011;13760;52.588;13.406;2023-07-30T06:45:57;4.60;;;3.20;;
25962;SDS011;13760;52.588;13.406;2023-07-30T06:48:23;4.15;;;2.90;;
25962;SDS011;13760;52.588;13.406;2023-07-30T06:50:48;4.70;;;3.47;;
25962;SDS011;13760;52.588;13.406;2023-07-30T06:53:14;3.40;;;3.00;;
25962;SDS011;13760;52.588;13.406;2023-07-30T06:55:39;4.43;;;2.88;;
25962;SDS011;13760;52.588;13.406;2023-07-30T06:58:05;3.50;;;3.00;;
25962;SDS011;13760;52.588;13.406;2023-07-30T07:00:30;3.42;;;2.55;;
25962;SDS011;13760;52.588;13.406;2023-07-30T07:02:56;3.60;;;2.90;;
25962;SDS011;13760;52.588;13.406;2023-07-30T07:05:21;5.22;;;2.85;;
25962;SDS011;13760;52.588;13.406;2023-07-30T07:07:47;3.50;;;2.90;;
25962;SDS011;13760;52.588;13.406;2023-07-30T07:10:12;3.20;;;2.90;;
25962;SDS011;13760;52.588;13.406;2023-07-30T07:12:38;4.18;;;2.88;;
25962;SDS011;13760;52.588;13.406;2023-07-30T07:15:04;4.50;;;2.70;;
25962;SDS011;13760;52.588;13.406;2023-07-30T07:17:30;3.42;;;2.78;;
25962;SDS011;13760;52.588;13.406;2023-07-30T07:19:56;5.55;;;2.90;;
25962;SDS011;13760;52.588;13.406;2023-07-30T07:22:22;3.35;;;2.85;;
25962;SDS011;13760;52.588;13.406;2023-07-30T07:24:48;3.95;;;3.00;;
25962;SDS011;13760;52.588;13.406;2023-07-30T07:27:13;4.03;;;2.67;;
25962;SDS011;13760;52.588;13.406;2023-07-30T07:29:39;3.22;;;2.83;;
25962;SDS011;13760;52.588;13.406;2023-07-30T07:32:04;4.85;;;2.60;;
25962;SDS011;13760;52.588;13.406;2023-07-30T07:34:30;4.75;;;3.08;;
25962;SDS011;13760;52.588;13.406;2023-07-30T07:36:56;5.78;;;2.70;;
25962;SDS011;13760;52.588;13.406;2023-07-30T07:39:21;4.95;;;2.95;;
25962;SDS011;13760;52.588;13.406;2023-07-30T07:41:47;3.15;;;2.72;;
25962;SDS011;13760;52.588;13.406;2023-07-30T07:44:12;3.63;;;2.80;;
25962;SDS011;13760;52.588;13.406;2023-07-30T07:46:38;4.00;;;2.67;;
25962;SDS011;13760;52.588;13.406;2023-07-30T07:49:03;4.00;;;2.75;;
25962;SDS011;13760;52.588;13.406;2023-07-30T07:51:29;5.15;;;3.22;;
25962;SDS011;13760;52.588;13.406;2023-07-30T07:53:54;3.97;;;2.95;;
25962;SDS011;13760;52.588;13.406;2023-07-30T07:56:19;3.83;;;3.10;;
25962;SDS011;13760;52.588;13.406;2023-07-30T07:58:45;3.10;;;2.78;;
25962;SDS011;13760;52.588;13.406;2023-07-30T08:01:10;6.00;;;2.95;;
25962;SDS011;13760;52.588;13.406;2023-07-30T08:03:36;4.95;;;3.47;;
25962;SDS011;13760;52.588;13.406;2023-07-30T08:06:01;7.32;;;3.10;;
25962;SDS011;13760;52.588;13.406;2023-07-30T08:08:27;4.13;;;2.90;;
25962;SDS011;13760;52.588;13.406;2023-07-30T08:10:53;3.10;;;2.80;;
25962;SDS011;13760;52.588;13.406;2023-07-30T08:13:19;5.13;;;2.58;;
25962;SDS011;13760;52.588;13.406;2023-07-30T08:15:45;3.17;;;2.83;;
25962;SDS011;13760;52.588;13.406;2023-07-30T08:18:10;3.88;;;3.00;;
25962;SDS011;13760;52.588;13.406;2023-07-30T08:20:36;5.43;;;3.17;;
25962;SDS011;13760;52.588;13.406;2023-07-30T08:23:01;4.55;;;2.47;;
25962;SDS011;13760;52.588;13.406;2023-07-30T08:25:27;5.20;;;3.15;;
25962;SDS011;13760;52.588;13.406;2023-07-30T08:27:52;4.72;;;3.08;;
25962;SDS011;13760;52.588;13.406;2023-07-30T08:30:18;5.13;;;3.03;;
25962;SDS011;13760;52.588;13.406;2023-07-30T08:32:43;4.97;;;2.83;;
25962;SDS011;13760;52.588;13.406;2023-07-30T08:35:09;3.85;;;2.75;;
25962;SDS011;13760;52.588;13.406;2023-07-30T08:37:35;8.27;;;3.20;;
25962;SDS011;13760;52.588;13.406;2023-07-30T08:40:01;6.45;;;2.63;;
25962;SDS011;13760;52.588;13.406;2023-07-30T08:42:27;4.13;;;2.70;;
25962;SDS011;13760;52.588;13.406;2023-07-30T08:44:53;3.70;;;2.20;;
25962;SDS011;13760;52.588;13.406;2023-07-30T08:47:19;4.07;;;2.83;;
25962;SDS011;13760;52.588;13.406;2023-07-30T08:49:44;5.50;;;2.47;;
25962;SDS011;13760;52.588;13.406;2023-07-30T08:52:10;4.10;;;2.50;;
25962;SDS011;13760;52.588;13.406;2023-07-30T08:54:37;3.50;;;2.22;;
25962;SDS011;13760;52.588;13.406;2023-07-30T08:57:04;4.60;;;2.58;;
25962;SDS011;13760;52.588;13.406;2023-07-30T08:59:35;4.55;;;2.55;;
25962;SDS011;13760;52.588;13.406;2023-07-30T09:02:05;5.85;;;2.30;;
25962;SDS011;13760;52.588;13.406;2023-07-30T09:04:35;6.80;;;2.50;;
25962;SDS011;13760;52.588;13.406;2023-07-30T09:07:03;2.70;;;2.17;;
25962;SDS011;13760;52.588;13.406;2023-07-30T09:09:33;4.95;;;2.30;;
25962;SDS011;13760;52.588;13.406;2023-07-30T09:11:58;3.33;;;2.33;;
25962;SDS011;13760;52.588;13.406;2023-07-30T09:14:25;3.70;;;2.35;;
25962;SDS011;13760;52.588;13.406;2023-07-30T09:16:57;5.05;;;2.50;;
25962;SDS011;13760;52.588;13.406;2023-07-30T09:19:23;3.80;;;2.20;;
25962;SDS011;13760;52.588;13.406;2023-07-30T09:21:48;5.15;;;2.20;;
25962;SDS011;13760;52.588;13.406;2023-07-30T09:24:19;3.95;;;2.35;;
25962;SDS011;13760;52.588;13.406;2023-07-30T09:26:46;4.43;;;2.40;;
25962;SDS011;13760;52.588;13.406;2023-07-30T09:29:12;3.15;;;2.20;;
25962;SDS011;13760;52.588;13.406;2023-07-30T09:31:49;4.78;;;2.20;;
25962;SDS011;13760;52.588;13.406;2023-07-30T09:34:24;5.40;;;2.35;;
25962;SDS011;13760;52.588;13.406;2023-07-30T09:36:50;6.13;;;2.05;;
25962;SDS011;13760;52.588;13.406;2023-07-30T09:39:20;6.57;;;2.40;;
25962;SDS011;13760;52.588;13.406;2023-07-30T09:41:46;3.28;;;2.40;;
25962;SDS011;13760;52.588;13.406;2023-07-30T09:44:16;3.95;;;2.00;;
25962;SDS011;13760;52.588;13.406;2023-07-30T09:46:43;6.05;;;2.67;;
25962;SDS011;13760;52.588;13.406;2023-07-30T09:49:10;5.55;;;2.10;;
25962;SDS011;13760;52.588;13.406;2023-07-30T09:51:36;6.35;;;2.35;;
25962;SDS011;13760;52.588;13.406;2023-07-30T09:54:03;5.20;;;2.40;;
25962;SDS011;13760;52.588;13.406;2023-07-30T09:56:30;3.70;;;2.17;;
25962;SDS011;13760;52.588;13.406;2023-07-30T09:58:56;5.93;;;1.85;;
25962;SDS011;13760;52.588;13.406;2023-07-30T10:01:24;5.70;;;2.53;;
25962;SDS011;13760;52.588;13.406;2023-07-30T10:03:54;5.38;;;2.20;;
25962;SDS011;13760;52.588;13.406;2023-07-30T10:06:21;6.80;;;2.65;;
25962;SDS011;13760;52.588;13.406;2023-07-30T10:08:54;4.13;;;2.50;;
25962;SDS011;13760;52.588;13.406;2023-07-30T10:11:22;5.72;;;2.20;;
25962;SDS011;13760;52.588;13.406;2023-07-30T10:13:48;6.03;;;2.40;;
25962;SDS011;13760;52.588;13.406;2023-07-30T10:16:14;5.60;;;2.47;;
25962;SDS011;13760;52.588;13.406;2023-07-30T10:18:41;4.47;;;2.03;;
25962;SDS011;13760;52.588;13.406;2023-07-30T10:21:21;7.78;;;2.67;;
25962;SDS011;13760;52.588;13.406;2023-07-30T10:23:58;4.05;;;2.42;;
25962;SDS011;13760;52.588;13.406;2023-07-30T10:26:26;4.55;;;2.50;;
25962;SDS011;13760;52.588;13.406;2023-07-30T10:29:09;7.32;;;2.40;;
25962;SDS011;13760;52.588;13.406;2023-07-30T10:31:42;4.22;;;2.28;;
25962;SDS011;13760;52.588;13.406;2023-07-30T10:34:21;3.15;;;2.00;;
25962;SDS011;13760;52.588;13.406;2023-07-30T10:36:50;4.20;;;2.38;;
25962;SDS011;13760;52.588;13.406;2023-07-30T10:39:19;3.85;;;2.30;;
25962;SDS011;13760;52.588;13.406;2023-07-30T10:41:49;5.75;;;2.17;;
25962;SDS011;13760;52.588;13.406;2023-07-30T10:44:19;4.82;;;2.30;;
25962;SDS011;13760;52.588;13.406;2023-07-30T10:46:48;2.90;;;1.90;;
25962;SDS011;13760;52.588;13.406;2023-07-30T10:49:14;5.75;;;2.42;;
25962;SDS011;13760;52.588;13.406;2023-07-30T10:51:39;3.40;;;2.38;;
25962;SDS011;13760;52.588;13.406;2023-07-30T10:54:08;6.70;;;2.47;;
25962;SDS011;13760;52.588;13.406;2023-07-30T10:56:34;4.38;;;2.40;;
25962;SDS011;13760;52.588;13.406;2023-07-30T10:59:03;5.75;;;2.40;;
25962;SDS011;13760;52.588;13.406;2023-07-30T11:01:38;2.72;;;1.88;;
25962;SDS011;13760;52.588;13.406;2023-07-30T11:04:08;3.17;;;2.17;;
25962;SDS011;13760;52.588;13.406;2023-07-30T11:06:45;3.70;;;1.90;;
25962;SDS011;13760;52.588;13.406;2023-07-30T11:09:20;4.15;;;2.10;;
25962;SDS011;13760;52.588;13.406;2023-07-30T11:11:47;3.63;;;2.10;;
25962;SDS011;13760;52.588;13.406;2023-07-30T11:14:20;2.95;;;1.90;;
25962;SDS011;13760;52.588;13.406;2023-07-30T11:16:54;5.10;;;2.75;;
25962;SDS011;13760;52.588;13.406;2023-07-30T11:19:25;4.03;;;2.55;;
25962;SDS011;13760;52.588;13.406;2023-07-30T11:21:52;5.30;;;2.70;;
25962;SDS011;13760;52.588;13.406;2023-07-30T11:24:19;2.92;;;1.80;;
25962;SDS011;13760;52.588;13.406;2023-07-30T11:26:57;6.65;;;2.58;;
25962;SDS011;13760;52.588;13.406;2023-07-30T11:29:24;7.78;;;2.67;;
25962;SDS011;13760;52.588;13.406;2023-07-30T11:31:49;6.80;;;2.40;;
25962;SDS011;13760;52.588;13.406;2023-07-30T11:34:15;5.30;;;2.22;;
25962;SDS011;13760;52.588;13.406;2023-07-30T11:36:43;6.10;;;2.33;;
25962;SDS011;13760;52.588;13.406;2023-07-30T11:39:09;4.70;;;2.22;;
25962;SDS011;13760;52.588;13.406;2023-07-30T11:41:35;4.95;;;2.35;;
25962;SDS011;13760;52.588;13.406;2023-07-30T11:44:01;6.65;;;2.00;;
25962;SDS011;13760;52.588;13.406;2023-07-30T11:46:28;4.18;;;1.83;;
25962;SDS011;13760;52.588;13.406;2023-07-30T11:49:10;5.45;;;2.30;;
25962;SDS011;13760;52.588;13.406;2023-07-30T11:51:37;5.28;;;2.13;;
25962;SDS011;13760;52.588;13.406;2023-07-30T11:54:03;4.07;;;1.98;;
25962;SDS011;13760;52.588;13.406;2023-07-30T11:56:29;7.70;;;2.20;;
25962;SDS011;13760;52.588;13.406;2023-07-30T11:58:59;6.22;;;2.28;;
25962;SDS011;13760;52.588;13.406;2023-07-30T12:01:29;5.78;;;1.90;;
25962;SDS011;13760;52.588;13.406;2023-07-30T12:03:56;7.80;;;2.45;;
25962;SDS011;13760;52.588;13.406;2023-07-30T12:06:22;4.32;;;2.28;;
25962;SDS011;13760;52.588;13.406;2023-07-30T12:08:48;8.65;;;2.58;;
25962;SDS011;13760;52.588;13.406;2023-07-30T12:11:18;5.97;;;2.17;;
25962;SDS011;13760;52.588;13.406;2023-07-30T12:13:47;7.25;;;2.15;;
25962;SDS011;13760;52.588;13.406;2023-07-30T12:16:15;4.13;;;2.03;;
25962;SDS011;13760;52.588;13.406;2023-07-30T12:18:41;3.97;;;1.90;;
25962;SDS011;13760;52.588;13.406;2023-07-30T12:21:07;4.15;;;1.67;;
25962;SDS011;13760;52.588;13.406;2023-07-30T12:23:36;5.60;;;2.00;;
25962;SDS011;13760;52.588;13.406;2023-07-30T12:26:03;5.77;;;2.10;;
25962;SDS011;13760;52.588;13.406;2023-07-30T12:28:32;6.40;;;2.20;;
25962;SDS011;13760;52.588;13.406;2023-07-30T12:31:02;4.15;;;1.85;;
25962;SDS011;13760;52.588;13.406;2023-07-30T12:33:27;4.18;;;2.17;;
25962;SDS011;13760;52.588;13.406;2023-07-30T12:35:53;2.63;;;1.83;;
25962;SDS011;13760;52.588;13.406;2023-07-30T12:38:19;7.15;;;2.38;;
25962;SDS011;13760;52.588;13.406;2023-07-30T12:40:44;3.78;;;2.10;;
25962;SDS011;13760;52.588;13.406;2023-07-30T12:43:10;10.18;;;2.10;;
25962;SDS011;13760;52.588;13.406;2023-07-30T12:45:35;4.20;;;2.10;;
25962;SDS011;13760;52.588;13.406;2023-07-30T12:48:01;4.13;;;2.38;;
25962;SDS011;13760;52.588;13.406;2023-07-30T12:50:46;4.22;;;2.20;;
25962;SDS011;13760;52.588;13.406;2023-07-30T12:53:26;5.13;;;2.00;;
25962;SDS011;13760;52.588;13.406;2023-07-30T12:55:54;4.47;;;2.08;;
25962;SDS011;13760;52.588;13.406;2023-07-30T12:58:20;4.07;;;2.10;;
25962;SDS011;13760;52.588;13.406;2023-07-30T13:00:45;4.82;;;2.20;;
25962;SDS011;13760;52.588;13.406;2023-07-30T13:03:11;5.68;;;2.35;;
25962;SDS011;13760;52.588;13.406;2023-07-30T13:05:36;7.85;;;2.63;;
25962;SDS011;13760;52.588;13.406;2023-07-30T13:08:02;4.85;;;2.45;;
25962;SDS011;13760;52.588;13.406;2023-07-30T13:10:28;5.40;;;2.35;;
25962;SDS011;13760;52.588;13.406;2023-07-30T13:12:53;4.63;;;2.20;;
25962;SDS011;13760;52.588;13.406;2023-07-30T13:15:19;4.18;;;2.55;;
25962;SDS011;13760;52.588;13.406;2023-07-30T13:17:45;6.30;;;2.47;;
25962;SDS011;13760;52.588;13.406;2023-07-30T13:20:10;4.63;;;2.47;;
25962;SDS011;13760;52.588;13.406;2023-07-30T13:22:36;4.40;;;2.47;;
25962;SDS011;13760;52.588;13.406;2023-07-30T13:25:01;4.30;;;2.22;;
25962;SDS011;13760;52.588;13.406;2023-07-30T13:27:28;6.25;;;2.38;;
25962;SDS011;13760;52.588;13.406;2023-07-30T13:30:00;4.13;;;2.17;;
25962;SDS011;13760;52.588;13.406;2023-07-30T13:35:02;4.88;;;2.80;;
25962;SDS011;13760;52.588;13.406;2023-07-30T13:37:28;5.15;;;2.47;;
25962;SDS011;13760;52.588;13.406;2023-07-30T13:39:54;3.92;;;2.50;;
25962;SDS011;13760;52.588;13.406;2023-07-30T13:42:19;4.22;;;2.30;;
25962;SDS011;13760;52.588;13.406;2023-07-30T13:44:45;5.55;;;2.38;;
25962;SDS011;13760;52.588;13.406;2023-07-30T13:47:10;3.45;;;2.30;;
25962;SDS011;13760;52.588;13.406;2023-07-30T13:49:36;9.35;;;2.55;;
25962;SDS011;13760;52.588;13.406;2023-07-30T13:52:02;5.00;;;2.47;;
25962;SDS011;13760;52.588;13.406;2023-07-30T13:54:28;2.75;;;2.00;;
25962;SDS011;13760;52.588;13.406;2023-07-30T13:56:53;5.53;;;2.50;;
25962;SDS011;13760;52.588;13.406;2023-07-30T13:59:19;6.75;;;2.40;;
25962;SDS011;13760;52.588;13.406;2023-07-30T14:01:44;7.72;;;2.10;;
25962;SDS011;13760;52.588;13.406;2023-07-30T14:04:10;3.72;;;2.13;;
25962;SDS011;13760;52.588;13.406;2023-07-30T14:06:35;2.92;;;1.73;;
25962;SDS011;13760;52.588;13.406;2023-07-30T14:09:02;4.95;;;1.73;;
25962;SDS011;13760;52.588;13.406;2023-07-30T14:11:29;4.13;;;1.80;;
25962;SDS011;13760;52.588;13.406;2023-07-30T14:13:54;4.32;;;1.85;;
25962;SDS011;13760;52.588;13.406;2023-07-30T14:16:20;6.25;;;1.95;;
25962;SDS011;13760;52.588;13.406;2023-07-30T14:18:46;3.15;;;1.50;;
25962;SDS011;13760;52.588;13.406;2023-07-30T14:21:11;4.20;;;1.50;;
25962;SDS011;13760;52.588;13.406;2023-07-30T14:23:38;2.47;;;1.60;;
25962;SDS011;13760;52.588;13.406;2023-07-30T14:26:03;5.18;;;1.85;;
25962;SDS011;13760;52.588;13.406;2023-07-30T14:28:29;4.82;;;1.85;;
25962;SDS011;13760;52.588;13.406;2023-07-30T14:30:55;5.85;;;1.58;;
25962;SDS011;13760;52.588;13.406;2023-07-30T14:33:20;4.30;;;1.98;;
25962;SDS011;13760;52.588;13.406;2023-07-30T14:35:46;5.65;;;1.80;;